Time;durP1;ratioP1;P1;durP2;ratioP2;P2;SDS_P1;SDS_P2;PMS_P1;PMS_P2;Temp;Humidity;BMP_temperature;BMP_pressure;BME280_temperature;BME280_humidity;BME280_pressure;Samples;Min_cycle;Max_cycle;Signal;HPM_P1;HPM_P2
2022/10/24 00:01:46;;;;;;;7.18;2.38;;;16.50;90.80;;;;;;9176644;19;20018;-65
2022/10/24 00:04:50;;;;;;;15.13;2.42;;;16.50;90.30;;;;;;9174834;19;20011;-63
2022/10/24 00:07:53;;;;;;;13.00;2.17;;;16.50;90.20;;;;;;9176956;19;20028;-65
2022/10/24 00:10:57;;;;;;;;;;;16.40;90.20;;;;;;9177687;19;20404;-65
2022/10/24 00:14:03;;;;;;;7.25;2.03;;;16.40;90.20;;;;;;9173674;19;19931;-63
2022/10/24 00:17:07;;;;;;;6.20;2.35;;;16.40;90.20;;;;;;9176357;19;20014;-64
2022/10/24 00:20:12;;;;;;;6.75;2.42;;;16.40;89.80;;;;;;9175321;19;20102;-64
2022/10/24 00:23:16;;;;;;;4.93;2.15;;;16.40;89.80;;;;;;9176340;19;20422;-65
2022/10/24 00:26:19;;;;;;;7.72;2.10;;;16.40;90.20;;;;;;9172278;19;20094;-66
2022/10/24 00:29:25;;;;;;;;;;;16.30;89.80;;;;;;9174533;19;20395;-62
2022/10/24 00:32:29;;;;;;;5.15;2.22;;;16.30;89.90;;;;;;9173441;19;19915;-63
2022/10/24 00:35:33;;;;;;;13.82;2.95;;;16.30;89.80;;;;;;9176284;19;20022;-64
2022/10/24 00:38:37;;;;;;;6.70;2.55;;;16.30;89.70;;;;;;9174624;19;20017;-63
2022/10/24 00:41:42;;;;;;;7.20;2.15;;;16.30;90.20;;;;;;9173152;19;20055;-65
2022/10/24 00:44:53;;;;;;;9.75;2.40;;;16.20;89.70;;;;;;9172029;19;20041;-64
2022/10/24 00:47:56;;;;;;;5.35;2.50;;;16.20;90.00;;;;;;9175240;19;20801;-64
2022/10/24 00:51:03;;;;;;;6.90;2.58;;;16.20;89.80;;;;;;9175412;19;20081;-63
2022/10/24 00:54:10;;;;;;;9.32;2.35;;;16.10;89.80;;;;;;9172365;19;20935;-63
2022/10/24 00:57:20;;;;;;;18.80;3.22;;;16.20;89.80;;;;;;9174887;19;20032;-64
2022/10/24 01:00:29;;;;;;;9.52;2.38;;;16.10;90.00;;;;;;9174902;19;20431;-65
2022/10/24 01:03:33;;;;;;;9.80;2.40;;;16.10;89.40;;;;;;9171843;19;20783;-63
2022/10/24 01:06:42;;;;;;;;;;;16.10;89.80;;;;;;9175088;19;20030;-63
2022/10/24 01:10:08;;;;;;;11.40;2.88;;;16.00;89.50;;;;;;9172491;19;19919;-64
2022/10/24 01:13:26;;;;;;;6.18;2.40;;;16.00;89.80;;;;;;9182240;19;20059;-63
2022/10/24 01:16:38;;;;;;;9.75;2.63;;;15.90;89.40;;;;;;9183003;19;20116;-65
2022/10/24 01:20:12;;;;;;;21.70;3.90;;;15.90;89.70;;;;;;9181402;19;20107;-63
2022/10/24 01:23:42;;;;;;;11.77;3.93;;;15.90;89.70;;;;;;9182981;19;20442;-65
2022/10/24 01:27:04;;;;;;;9.88;2.97;;;15.90;89.70;;;;;;9179546;19;20041;-64
2022/10/24 01:30:12;;;;;;;10.70;2.60;;;15.90;89.60;;;;;;9183333;19;20477;-64
2022/10/24 01:33:23;;;;;;;10.82;1.98;;;15.90;90.30;;;;;;9181598;19;20486;-63
2022/10/24 01:36:32;;;;;;;4.88;2.47;;;15.90;90.20;;;;;;9182095;19;20006;-64
2022/10/24 01:39:41;;;;;;;11.43;2.40;;;15.90;90.60;;;;;;9182930;19;20015;-64
2022/10/24 01:42:45;;;;;;;11.55;2.70;;;15.90;90.70;;;;;;9177427;19;20043;-63
2022/10/24 01:45:56;;;;;;;8.95;2.17;;;15.90;90.50;;;;;;9179672;19;20038;-67
2022/10/24 01:49:06;;;;;;;5.93;2.30;;;15.90;90.90;;;;;;9181693;19;20061;-66
2022/10/24 01:52:13;;;;;;;15.45;2.30;;;15.90;90.70;;;;;;9179988;19;20082;-63
2022/10/24 01:55:38;;;;;;;9.32;2.30;;;15.90;90.50;;;;;;9182213;19;20014;-64
2022/10/24 01:58:42;;;;;;;7.28;2.28;;;15.90;90.40;;;;;;9180464;19;20014;-63
2022/10/24 02:01:48;;;;;;;6.88;2.60;;;15.90;90.50;;;;;;9181563;19;20022;-63
2022/10/24 02:04:57;;;;;;;9.63;2.60;;;15.90;90.20;;;;;;9179993;19;20048;-63
2022/10/24 02:08:05;;;;;;;16.27;2.78;;;15.90;90.30;;;;;;9182200;19;20049;-64
2022/10/24 02:11:11;;;;;;;12.30;2.60;;;15.90;90.30;;;;;;9181589;19;20014;-63
2022/10/24 02:14:20;;;;;;;6.07;2.33;;;15.80;89.70;;;;;;9178531;19;20403;-64
2022/10/24 02:17:26;;;;;;;14.20;2.30;;;15.90;90.10;;;;;;9180024;19;20015;-62
2022/10/24 02:20:35;;;;;;;11.32;2.50;;;15.80;89.60;;;;;;9179263;19;20041;-63
2022/10/24 02:23:44;;;;;;;5.50;2.03;;;15.80;89.30;;;;;;9177260;19;20034;-63
2022/10/24 02:26:53;;;;;;;9.25;2.85;;;15.80;89.30;;;;;;9180597;19;20027;-62
2022/10/24 02:30:01;;;;;;;16.42;3.35;;;15.70;88.90;;;;;;9181134;19;20031;-63
2022/10/24 02:33:08;;;;;;;11.90;2.55;;;15.70;88.70;;;;;;9178950;19;20006;-66
2022/10/24 02:36:15;;;;;;;11.07;3.22;;;15.70;88.80;;;;;;9180230;19;20006;-64
2022/10/24 02:39:20;;;;;;;11.45;2.47;;;15.70;88.60;;;;;;9180627;19;20026;-63
2022/10/24 02:42:27;;;;;;;15.02;2.38;;;15.70;89.20;;;;;;9178385;19;20018;-64
2022/10/24 02:45:31;;;;;;;10.95;3.30;;;15.70;88.70;;;;;;9175720;19;20029;-64
2022/10/24 02:48:42;;;;;;;6.90;2.13;;;15.60;88.80;;;;;;9181016;19;20478;-63
2022/10/24 02:51:48;;;;;;;12.52;3.13;;;15.60;88.70;;;;;;9177853;19;20018;-65
2022/10/24 02:54:52;;;;;;;5.05;1.90;;;15.60;88.60;;;;;;9175689;19;20017;-63
2022/10/24 02:57:56;;;;;;;6.93;2.20;;;15.60;88.60;;;;;;9179483;19;20018;-63
2022/10/24 03:00:59;;;;;;;5.78;2.47;;;15.60;88.50;;;;;;9180165;19;20021;-63
2022/10/24 03:04:05;;;;;;;9.48;2.25;;;15.60;88.50;;;;;;9176593;19;20022;-64
2022/10/24 03:07:09;;;;;;;16.20;2.63;;;15.60;88.40;;;;;;9179146;19;20026;-63
2022/10/24 03:10:13;;;;;;;7.90;2.22;;;15.70;88.90;;;;;;9179396;19;20018;-64
2022/10/24 03:13:16;;;;;;;13.00;1.85;;;15.70;88.40;;;;;;9177653;19;20093;-66
2022/10/24 03:16:20;;;;;;;7.00;1.75;;;15.70;88.30;;;;;;9179585;19;20508;-65
2022/10/24 03:19:26;;;;;;;18.35;2.22;;;15.80;88.90;;;;;;9179071;19;20014;-63
2022/10/24 03:22:29;;;;;;;5.65;1.90;;;15.80;89.10;;;;;;9177847;19;20018;-63
2022/10/24 03:25:34;;;;;;;11.02;1.90;;;15.80;88.40;;;;;;9179167;19;20014;-63
2022/10/24 03:28:38;;;;;;;7.97;1.77;;;15.90;89.50;;;;;;9176858;19;20023;-64
2022/10/24 03:31:42;;;;;;;;;;;15.80;88.00;;;;;;9178510;19;20019;-64
2022/10/24 03:34:47;;;;;;;11.77;2.50;;;15.90;88.10;;;;;;9174509;19;20381;-63
2022/10/24 03:37:51;;;;;;;16.70;1.80;;;15.90;88.00;;;;;;9176175;19;20085;-63
2022/10/24 03:40:54;;;;;;;6.70;1.85;;;15.90;87.90;;;;;;9178371;19;20011;-63
2022/10/24 03:43:58;;;;;;;8.90;1.50;;;15.90;87.80;;;;;;9170644;19;20028;-63
2022/10/24 03:47:02;;;;;;;10.48;2.08;;;16.00;88.00;;;;;;9178394;19;20090;-64
2022/10/24 03:50:09;;;;;;;6.60;1.52;;;15.90;87.60;;;;;;9178123;19;20014;-63
2022/10/24 03:53:12;;;;;;;4.05;1.50;;;16.00;87.50;;;;;;9176690;19;20006;-63
2022/10/24 03:56:16;;;;;;;4.65;1.85;;;15.90;87.40;;;;;;9176150;19;20367;-65
2022/10/24 03:59:20;;;;;;;9.88;2.10;;;;;;;;;;9177233;19;20007;-65
2022/10/24 04:02:24;;;;;;;;;;;16.00;86.60;;;;;;9178255;19;20018;-62
2022/10/24 04:05:30;;;;;;;5.40;1.50;;;15.90;87.10;;;;;;9174529;19;19938;-65
2022/10/24 04:08:33;;;;;;;11.60;2.25;;;15.90;87.00;;;;;;9177785;19;20022;-63
2022/10/24 04:11:37;;;;;;;7.80;1.75;;;15.90;86.90;;;;;;9177376;19;20389;-63
2022/10/24 04:14:41;;;;;;;10.02;1.80;;;15.90;86.90;;;;;;9174844;19;20491;-64
2022/10/24 04:17:45;;;;;;;4.35;1.60;;;15.90;86.80;;;;;;9174524;19;20047;-63
2022/10/24 04:20:51;;;;;;;3.97;1.42;;;15.90;86.70;;;;;;9176785;19;20043;-65
2022/10/24 04:23:55;;;;;;;10.90;1.77;;;15.90;86.70;;;;;;9176676;19;20488;-64
2022/10/24 04:26:58;;;;;;;7.38;2.53;;;15.90;86.70;;;;;;9175832;19;20053;-67
2022/10/24 04:30:02;;;;;;;5.32;1.73;;;15.90;86.60;;;;;;9176603;19;20519;-65
2022/10/24 04:33:06;;;;;;;13.82;2.47;;;15.90;86.60;;;;;;9175660;19;20018;-66
2022/10/24 04:36:11;;;;;;;3.97;1.80;;;15.80;86.40;;;;;;9175633;19;20432;-64
2022/10/24 04:39:15;;;;;;;5.93;2.10;;;15.80;86.40;;;;;;9175812;19;20026;-64
2022/10/24 04:42:19;;;;;;;5.75;1.88;;;15.80;86.30;;;;;;9174735;19;20082;-64
2022/10/24 04:45:22;;;;;;;5.65;1.52;;;15.80;86.40;;;;;;9172333;19;20018;-63
2022/10/24 04:48:26;;;;;;;8.45;2.50;;;15.80;86.30;;;;;;9184292;19;20048;-62
2022/10/24 04:51:32;;;;;;;5.20;1.83;;;15.80;86.20;;;;;;9184068;19;20126;-63
2022/10/24 04:54:35;;;;;;;15.48;2.22;;;15.80;86.20;;;;;;9181417;19;20019;-63
2022/10/24 04:57:39;;;;;;;2.83;1.42;;;15.80;86.20;;;;;;9183876;19;20018;-65
2022/10/24 05:00:45;;;;;;;5.68;1.58;;;;;;;;;;9183048;19;20022;-63
2022/10/24 05:03:49;;;;;;;3.05;1.17;;;15.80;85.70;;;;;;9181836;19;20357;-64
2022/10/24 05:06:54;;;;;;;13.35;1.70;;;15.80;86.30;;;;;;9181430;19;20042;-64
2022/10/24 05:09:58;;;;;;;9.55;1.50;;;16.10;86.90;;;;;;9180984;19;20052;-65
2022/10/24 05:13:02;;;;;;;4.35;1.83;;;15.80;86.70;;;;;;9174143;19;20046;-64
2022/10/24 05:16:06;;;;;;;8.02;1.67;;;15.80;86.80;;;;;;9177226;19;20018;-64
2022/10/24 05:19:09;;;;;;;;;;;15.80;86.70;;;;;;9173448;19;20010;-65
2022/10/24 05:22:15;;;;;;;7.18;1.40;;;;;;;;;;9173297;19;19926;-63
2022/10/24 05:25:19;;;;;;;8.50;2.00;;;15.80;94.60;;;;;;9174554;19;20799;-65
2022/10/24 05:28:23;;;;;;;7.25;1.50;;;15.70;94.40;;;;;;9177348;19;20032;-66
2022/10/24 05:31:27;;;;;;;9.35;2.03;;;15.80;94.50;;;;;;9174692;19;20472;-65
2022/10/24 05:34:30;;;;;;;4.75;1.58;;;15.80;94.20;;;;;;9173673;19;20018;-66
2022/10/24 05:37:37;;;;;;;9.85;2.15;;;15.70;94.10;;;;;;9174900;19;20539;-66
2022/10/24 05:40:41;;;;;;;8.95;1.77;;;15.70;93.60;;;;;;9178783;19;20560;-62
2022/10/24 05:43:44;;;;;;;4.95;1.35;;;15.70;93.70;;;;;;9176938;19;20022;-64
2022/10/24 05:46:48;;;;;;;4.40;1.60;;;15.70;93.60;;;;;;9181201;19;20451;-63
2022/10/24 05:49:52;;;;;;;9.63;1.65;;;15.70;93.60;;;;;;9179990;19;20022;-63
2022/10/24 05:52:57;;;;;;;2.80;1.65;;;15.70;93.60;;;;;;9179204;19;20051;-67
2022/10/24 05:56:01;;;;;;;5.68;2.13;;;15.70;93.50;;;;;;9179011;19;20018;-65
2022/10/24 05:59:05;;;;;;;7.85;1.60;;;15.60;93.30;;;;;;9178296;19;20045;-64
2022/10/24 06:02:11;;;;;;;9.98;1.70;;;15.60;93.30;;;;;;9175137;19;20072;-64
2022/10/24 06:05:15;;;;;;;4.18;1.60;;;15.60;93.40;;;;;;9176822;19;20501;-63
2022/10/24 06:08:21;;;;;;;9.32;1.65;;;15.60;93.20;;;;;;9175493;19;20022;-62
2022/10/24 06:11:25;;;;;;;12.00;1.80;;;15.60;93.30;;;;;;9178113;19;20367;-63
2022/10/24 06:14:28;;;;;;;10.60;2.97;;;15.60;93.30;;;;;;9176768;19;20014;-65
2022/10/24 06:17:32;;;;;;;7.28;1.63;;;15.60;93.20;;;;;;9175839;19;20021;-63
2022/10/24 06:20:36;;;;;;;21.63;2.30;;;15.60;93.30;;;;;;9172871;19;20052;-62
2022/10/24 06:23:41;;;;;;;12.07;2.15;;;15.60;92.80;;;;;;9173553;19;20878;-63
2022/10/24 06:26:45;;;;;;;7.63;2.15;;;15.60;92.90;;;;;;9169638;19;20022;-67
2022/10/24 06:29:49;;;;;;;6.57;2.22;;;15.60;92.80;;;;;;9173205;19;20548;-63
2022/10/24 06:32:52;;;;;;;6.65;2.22;;;15.60;92.90;;;;;;9171393;19;20026;-63
2022/10/24 06:35:56;;;;;;;7.18;1.70;;;15.60;92.90;;;;;;9169574;19;20014;-65
2022/10/24 06:39:02;;;;;;;7.90;1.77;;;15.60;92.70;;;;;;9170325;19;20015;-66
2022/10/24 06:42:06;;;;;;;14.43;1.95;;;15.60;92.80;;;;;;9170692;19;20027;-65
2022/10/24 06:45:10;;;;;;;8.75;2.22;;;15.60;92.70;;;;;;9166142;19;20022;-66
2022/10/24 06:48:14;;;;;;;10.45;1.77;;;15.60;92.60;;;;;;9170069;19;20094;-67
2022/10/24 06:51:17;;;;;;;8.77;1.95;;;15.60;92.80;;;;;;9170515;19;20023;-64
2022/10/24 06:54:23;;;;;;;10.27;2.33;;;15.60;92.70;;;;;;9175246;19;20555;-63
2022/10/24 06:57:35;;;;;;;3.45;1.10;;;15.60;92.80;;;;;;9174049;19;20017;-65
2022/10/24 07:00:39;;;;;;;9.57;1.77;;;15.60;92.70;;;;;;9176834;19;20085;-63
2022/10/24 07:03:43;;;;;;;10.30;1.50;;;15.60;92.70;;;;;;9174064;19;20022;-63
2022/10/24 07:06:47;;;;;;;7.55;1.77;;;15.60;92.70;;;;;;9173624;19;20044;-62
2022/10/24 07:09:56;;;;;;;5.63;1.33;;;15.60;92.80;;;;;;9173891;19;20528;-64
2022/10/24 07:13:00;;;;;;;11.45;1.60;;;15.60;92.60;;;;;;9176309;19;20090;-64
2022/10/24 07:16:04;;;;;;;5.35;1.58;;;15.70;92.70;;;;;;9176443;19;20429;-63
2022/10/24 07:19:08;;;;;;;6.55;1.40;;;15.70;92.70;;;;;;9177325;19;20045;-64
2022/10/24 07:22:11;;;;;;;6.32;1.73;;;15.70;92.90;;;;;;9176496;19;20015;-65
2022/10/24 07:25:17;;;;;;;7.63;1.33;;;15.60;92.70;;;;;;9176407;19;20745;-66
2022/10/24 07:28:21;;;;;;;9.32;2.00;;;15.70;92.80;;;;;;9176389;19;20027;-65
2022/10/24 07:31:26;;;;;;;10.93;1.65;;;15.70;92.70;;;;;;9175575;19;20022;-64
2022/10/24 07:34:30;;;;;;;14.98;2.28;;;15.70;92.50;;;;;;9174726;19;20407;-66
2022/10/24 07:37:34;;;;;;;6.10;1.45;;;15.70;92.50;;;;;;9175434;19;20832;-62
2022/10/24 07:40:39;;;;;;;;;;;15.80;92.60;;;;;;9176600;19;20014;-65
2022/10/24 07:43:44;;;;;;;8.45;2.17;;;15.80;92.50;;;;;;9168430;19;19918;-65
2022/10/24 07:46:48;;;;;;;9.70;1.45;;;15.80;92.80;;;;;;9174798;19;20019;-64
2022/10/24 07:49:51;;;;;;;8.63;2.13;;;15.90;92.60;;;;;;9175251;19;20078;-66
2022/10/24 07:52:55;;;;;;;11.20;1.65;;;15.90;92.00;;;;;;9173242;19;20336;-63
2022/10/24 07:56:01;;;;;;;9.95;1.88;;;16.00;91.80;;;;;;9171007;19;20043;-64
2022/10/24 07:59:05;;;;;;;5.97;1.63;;;16.10;91.70;;;;;;9174288;19;20026;-67
2022/10/24 08:02:18;;;;;;;10.27;1.48;;;16.10;91.30;;;;;;9167490;19;20018;-70
2022/10/24 08:05:21;;;;;;;7.70;1.58;;;16.10;91.30;;;;;;9167086;19;20026;-63
2022/10/24 08:08:26;;;;;;;14.57;2.13;;;16.20;91.40;;;;;;9161059;19;20516;-64
2022/10/24 08:11:42;;;;;;;11.23;1.58;;;16.30;91.30;;;;;;9161902;19;20022;-63
2022/10/24 08:14:46;;;;;;;12.23;1.92;;;16.30;91.20;;;;;;9162914;19;20105;-64
2022/10/24 08:17:49;;;;;;;7.25;1.60;;;16.40;91.30;;;;;;9164880;19;20023;-67
2022/10/24 08:21:01;;;;;;;10.75;2.15;;;16.40;90.90;;;;;;9175997;19;20014;-65
2022/10/24 08:24:05;;;;;;;16.77;1.60;;;16.50;90.90;;;;;;9176382;19;20029;-66
2022/10/24 08:27:10;;;;;;;;;;;16.60;90.90;;;;;;9177546;19;20011;-65
2022/10/24 08:30:16;;;;;;;13.40;1.90;;;16.60;90.90;;;;;;9177891;19;19926;-65
2022/10/24 08:33:19;;;;;;;8.40;2.55;;;16.70;90.80;;;;;;9176940;19;20034;-64
2022/10/24 08:36:27;;;;;;;13.45;2.45;;;16.70;90.90;;;;;;9176812;19;20090;-65
2022/10/24 08:39:31;;;;;;;8.15;1.50;;;16.80;90.80;;;;;;9174402;19;20014;-64
2022/10/24 08:42:37;;;;;;;10.50;2.03;;;16.80;90.80;;;;;;9173611;19;20579;-70
2022/10/24 08:45:48;;;;;;;4.35;1.48;;;16.90;90.80;;;;;;9171651;19;20052;-68
2022/10/24 08:48:58;;;;;;;6.68;1.92;;;16.90;90.80;;;;;;9175719;19;20060;-69
2022/10/24 08:52:04;;;;;;;10.45;1.55;;;17.00;90.70;;;;;;9177816;19;20026;-70
2022/10/24 08:55:15;;;;;;;13.57;1.70;;;17.00;90.70;;;;;;9179771;19;20011;-69
2022/10/24 08:58:45;;;;;;;10.25;1.55;;;17.00;90.70;;;;;;9172170;19;20021;-70
2022/10/24 09:01:52;;;;;;;7.63;1.48;;;17.10;90.70;;;;;;9173754;19;20022;-69
2022/10/24 09:04:58;;;;;;;9.02;1.58;;;17.10;90.70;;;;;;9168751;19;20062;-70
2022/10/24 09:08:07;;;;;;;10.60;1.50;;;17.10;90.60;;;;;;9171045;19;20487;-69
2022/10/24 09:11:17;;;;;;;13.82;2.15;;;17.20;90.40;;;;;;9168260;19;20602;-69
2022/10/24 09:14:25;;;;;;;7.75;2.03;;;17.30;90.50;;;;;;9177017;19;20468;-69
2022/10/24 09:17:32;;;;;;;13.90;1.60;;;17.20;90.60;;;;;;9175639;19;20035;-70
2022/10/24 09:20:36;;;;;;;14.73;1.90;;;17.30;90.50;;;;;;9171433;19;20036;-69
2022/10/24 09:23:40;;;;;;;9.23;1.20;;;17.30;90.60;;;;;;9180386;19;20030;-69
2022/10/24 09:26:44;;;;;;;10.15;1.63;;;17.40;90.30;;;;;;9179345;19;20482;-69
2022/10/24 09:29:50;;;;;;;9.55;1.75;;;17.30;90.40;;;;;;9171942;19;20024;-68
2022/10/24 09:32:56;;;;;;;10.73;1.98;;;17.50;90.50;;;;;;9170860;19;20935;-69
2022/10/24 09:36:03;;;;;;;7.80;1.48;;;17.40;90.30;;;;;;9171763;19;20595;-69
2022/10/24 09:39:28;;;;;;;9.98;1.83;;;17.60;90.40;;;;;;9172599;19;20018;-70
2022/10/24 09:42:32;;;;;;;10.18;1.65;;;17.60;90.30;;;;;;9175345;19;20046;-68
2022/10/24 09:45:43;;;;;;;17.38;2.30;;;17.50;90.50;;;;;;9173940;19;20022;-71
2022/10/24 09:48:52;;;;;;;6.40;1.10;;;17.50;90.10;;;;;;9175134;19;20018;-69
2022/10/24 09:52:03;;;;;;;6.68;1.65;;;17.60;90.30;;;;;;9174587;19;20022;-70
2022/10/24 09:55:19;;;;;;;9.20;1.60;;;17.60;90.10;;;;;;9172351;19;20352;-70
2022/10/24 09:58:32;;;;;;;7.10;2.22;;;17.60;90.10;;;;;;9176482;19;20017;-69
2022/10/24 10:01:37;;;;;;;11.35;2.05;;;17.60;90.10;;;;;;9172790;19;20471;-71
2022/10/24 10:04:42;;;;;;;10.75;1.80;;;17.70;90.30;;;;;;9171742;19;20435;-70
2022/10/24 10:07:48;;;;;;;13.20;2.10;;;17.60;90.10;;;;;;9173081;19;20026;-70
2022/10/24 10:11:05;;;;;;;14.73;2.15;;;17.60;90.10;;;;;;9178236;19;20029;-70
2022/10/24 10:14:26;;;;;;;10.30;2.10;;;17.70;89.90;;;;;;9176748;19;20010;-70
2022/10/24 10:17:33;;;;;;;14.27;2.00;;;17.70;90.10;;;;;;9179460;19;20411;-70
2022/10/24 10:20:40;;;;;;;12.75;2.10;;;17.70;90.20;;;;;;9175498;19;20086;-70
2022/10/24 10:23:46;;;;;;;12.27;1.63;;;17.70;90.10;;;;;;9170355;19;20015;-69
2022/10/24 10:26:50;;;;;;;5.18;1.50;;;17.60;90.10;;;;;;9170999;19;20018;-72
2022/10/24 10:30:19;;;;;;;7.10;1.65;;;17.70;90.00;;;;;;9175617;19;20022;-69
2022/10/24 10:33:35;;;;;;;10.93;1.45;;;17.70;89.50;;;;;;9170666;19;20056;-70
2022/10/24 10:36:48;;;;;;;5.93;1.38;;;17.70;90.00;;;;;;9177446;19;20389;-64
2022/10/24 10:40:12;;;;;;;11.00;2.05;;;17.70;90.00;;;;;;9172635;19;20083;-65
2022/10/24 10:43:29;;;;;;;16.02;2.00;;;17.70;89.70;;;;;;9159738;19;20014;-65
2022/10/24 10:46:42;;;;;;;10.27;1.77;;;17.70;89.80;;;;;;9168077;19;20022;-64
2022/10/24 10:49:51;;;;;;;8.85;1.00;;;17.70;89.70;;;;;;9162991;19;20081;-65
2022/10/24 10:53:00;;;;;;;8.65;1.08;;;17.60;89.60;;;;;;9171316;19;20673;-64
2022/10/24 10:56:18;;;;;;;8.52;1.05;;;17.70;89.50;;;;;;9163605;19;20035;-66
2022/10/24 10:59:36;;;;;;;14.25;1.17;;;17.70;89.60;;;;;;9169703;19;20085;-64
2022/10/24 11:02:59;;;;;;;6.90;1.00;;;17.70;89.60;;;;;;9168936;19;20063;-62
2022/10/24 11:06:18;;;;;;;11.63;1.52;;;17.80;89.10;;;;;;9176577;19;20018;-65
2022/10/24 11:09:30;;;;;;;8.73;1.38;;;17.70;89.10;;;;;;9172706;19;20022;-64
2022/10/24 11:12:37;;;;;;;5.18;1.20;;;17.80;89.30;;;;;;9169863;19;20048;-66
2022/10/24 11:15:44;;;;;;;8.95;0.90;;;17.70;88.90;;;;;;9170758;19;20029;-64
2022/10/24 11:18:51;;;;;;;10.75;1.45;;;17.80;89.30;;;;;;9173691;19;20019;-64
2022/10/24 11:21:59;;;;;;;5.53;1.45;;;17.80;88.70;;;;;;9176753;19;20480;-62
2022/10/24 11:25:19;;;;;;;6.95;1.23;;;17.80;89.20;;;;;;9169371;19;20074;-65
2022/10/24 11:28:28;;;;;;;3.30;0.82;;;17.80;88.60;;;;;;9171091;19;20106;-64
2022/10/24 11:31:36;;;;;;;5.75;1.00;;;17.80;88.60;;;;;;9173109;19;20530;-68
2022/10/24 11:34:46;;;;;;;7.70;1.17;;;17.90;88.80;;;;;;9167636;19;20018;-65
2022/10/24 11:37:56;;;;;;;7.00;1.42;;;17.80;88.50;;;;;;9167406;19;20048;-63
2022/10/24 11:41:17;;;;;;;4.20;0.90;;;17.90;88.50;;;;;;9167549;19;20018;-65
2022/10/24 11:44:35;;;;;;;5.43;1.48;;;17.90;88.30;;;;;;9166917;19;20029;-64
2022/10/24 11:47:57;;;;;;;9.88;1.45;;;17.90;87.90;;;;;;9168803;19;20021;-65
2022/10/24 11:51:05;;;;;;;8.23;1.45;;;18.00;87.80;;;;;;9174551;19;20448;-66
2022/10/24 11:54:16;;;;;;;8.10;1.20;;;18.00;88.40;;;;;;9168906;19;20547;-65
2022/10/24 11:57:24;;;;;;;4.10;0.93;;;18.00;88.00;;;;;;9173290;19;20043;-65
2022/10/24 12:00:31;;;;;;;3.95;1.00;;;18.00;87.80;;;;;;9177500;19;20081;-65
2022/10/24 12:04:03;;;;;;;6.65;1.55;;;18.10;87.50;;;;;;9176308;19;20480;-63
2022/10/24 12:07:52;;;;;;;3.58;0.82;;;18.10;87.20;;;;;;9178901;19;20020;-63
2022/10/24 12:11:33;;;;;;;6.22;0.75;;;18.10;87.00;;;;;;9177192;19;20027;-63
2022/10/24 12:14:53;;;;;;;8.20;1.33;;;18.20;86.80;;;;;;9175851;19;20007;-64
2022/10/24 12:18:06;;;;;;;4.30;1.00;;;18.20;87.30;;;;;;9175373;19;20022;-64
2022/10/24 12:21:13;;;;;;;6.07;0.80;;;18.20;87.40;;;;;;9177360;19;20030;-65
2022/10/24 12:24:25;;;;;;;4.95;1.02;;;18.20;87.30;;;;;;9175448;19;20014;-65
2022/10/24 12:27:34;;;;;;;9.25;1.58;;;18.20;86.70;;;;;;9176344;19;20015;-65
2022/10/24 12:30:38;;;;;;;4.78;0.70;;;18.20;86.80;;;;;;9174909;19;20007;-63
2022/10/24 12:33:43;;;;;;;3.90;0.70;;;18.30;86.70;;;;;;9175109;19;20860;-64
2022/10/24 12:37:07;;;;;;;5.40;0.70;;;18.30;86.70;;;;;;9176383;19;20014;-62
2022/10/24 12:40:41;;;;;;;7.35;0.85;;;18.40;86.40;;;;;;9177052;19;20544;-63
2022/10/24 12:43:49;;;;;;;7.50;1.15;;;18.40;86.40;;;;;;9169266;19;20019;-63
2022/10/24 12:46:55;;;;;;;5.57;1.20;;;18.40;86.60;;;;;;9176209;19;20015;-65
2022/10/24 12:50:00;;;;;;;8.43;1.30;;;18.40;86.60;;;;;;9175366;19;20006;-64
2022/10/24 12:53:06;;;;;;;4.85;0.60;;;18.40;86.60;;;;;;9174621;19;20015;-63
2022/10/24 12:56:16;;;;;;;5.30;0.90;;;18.40;86.10;;;;;;9172513;19;20371;-63
2022/10/24 12:59:25;;;;;;;6.15;1.17;;;18.40;85.90;;;;;;9175455;19;20026;-64
2022/10/24 13:02:51;;;;;;;4.35;1.42;;;18.50;85.70;;;;;;9173485;19;20089;-63
2022/10/24 13:06:04;;;;;;;10.43;0.98;;;18.50;85.40;;;;;;9173267;19;20025;-66
2022/10/24 13:09:27;;;;;;;8.57;0.88;;;18.50;85.60;;;;;;9177767;19;20497;-65
2022/10/24 13:12:49;;;;;;;7.38;1.20;;;18.60;85.00;;;;;;9179375;19;20026;-67
2022/10/24 13:15:58;;;;;;;7.68;1.25;;;18.60;85.60;;;;;;9177060;19;20842;-65
2022/10/24 13:19:10;;;;;;;6.07;0.80;;;18.50;85.70;;;;;;9178897;19;20022;-64
2022/10/24 13:22:29;;;;;;;6.63;1.10;;;18.50;85.60;;;;;;9176969;19;20053;-67
2022/10/24 13:25:37;;;;;;;6.28;0.93;;;18.50;85.20;;;;;;9177631;19;20082;-66
2022/10/24 13:28:42;;;;;;;6.80;0.98;;;18.40;85.20;;;;;;9178397;19;20485;-64
2022/10/24 13:31:50;;;;;;;2.80;0.77;;;18.40;85.80;;;;;;9178321;19;20103;-63
2022/10/24 13:34:55;;;;;;;5.50;1.00;;;18.30;85.30;;;;;;9174028;19;20018;-66
2022/10/24 13:38:01;;;;;;;11.82;0.82;;;18.30;85.80;;;;;;9178590;19;20002;-63
2022/10/24 13:41:13;;;;;;;7.10;1.08;;;18.30;85.80;;;;;;9174916;19;20015;-65
2022/10/24 13:44:25;;;;;;;6.82;1.23;;;18.20;85.90;;;;;;9173483;19;20042;-63
2022/10/24 13:47:35;;;;;;;5.97;1.10;;;18.20;85.40;;;;;;9178482;19;20111;-64
2022/10/24 13:50:50;;;;;;;9.82;1.30;;;18.20;85.60;;;;;;9178028;19;20029;-66
2022/10/24 13:53:59;;;;;;;8.55;1.70;;;18.20;85.80;;;;;;9177831;19;20463;-63
2022/10/24 13:57:03;;;;;;;8.45;1.15;;;18.10;86.10;;;;;;9178277;19;20020;-66
2022/10/24 14:00:19;;;;;;;4.15;1.08;;;18.10;85.90;;;;;;9177929;19;20487;-64
2022/10/24 14:03:27;;;;;;;4.65;1.33;;;18.00;85.90;;;;;;9177534;19;20048;-67
2022/10/24 14:06:33;;;;;;;2.95;1.17;;;18.00;85.70;;;;;;9177727;19;20022;-64
2022/10/24 14:09:42;;;;;;;9.55;1.63;;;18.00;86.00;;;;;;9178227;19;20048;-65
2022/10/24 14:12:50;;;;;;;5.35;1.10;;;17.90;86.20;;;;;;9175825;19;20022;-65
2022/10/24 14:15:57;;;;;;;5.80;1.27;;;17.90;86.30;;;;;;9173478;19;20014;-63
2022/10/24 14:19:22;;;;;;;8.45;1.10;;;17.80;86.10;;;;;;9176661;19;20094;-66
2022/10/24 14:22:39;;;;;;;4.00;1.00;;;17.80;86.00;;;;;;9178208;19;20022;-64
2022/10/24 14:25:43;;;;;;;9.60;1.42;;;17.80;85.80;;;;;;9179044;19;20039;-64
2022/10/24 14:28:50;;;;;;;3.55;1.00;;;17.80;86.00;;;;;;9179411;19;20089;-67
2022/10/24 14:32:00;;;;;;;7.18;1.50;;;17.70;85.80;;;;;;9173367;19;20014;-63
2022/10/24 14:35:06;;;;;;;8.32;1.25;;;17.70;86.00;;;;;;9171020;19;20086;-64
2022/10/24 14:38:14;;;;;;;5.18;0.95;;;17.70;86.60;;;;;;9174139;19;20539;-64
2022/10/24 14:41:19;;;;;;;7.25;1.38;;;17.70;86.60;;;;;;9172303;19;20417;-65
2022/10/24 14:44:24;;;;;;;9.05;1.67;;;17.70;86.90;;;;;;9175032;19;20105;-64
2022/10/24 14:47:30;;;;;;;5.43;1.35;;;17.70;86.50;;;;;;9176744;19;20123;-64
2022/10/24 14:50:42;;;;;;;10.52;1.88;;;17.70;86.70;;;;;;9179691;19;20094;-62
2022/10/24 14:53:47;;;;;;;6.03;1.25;;;17.70;86.70;;;;;;9180467;19;20074;-64
2022/10/24 14:56:53;;;;;;;8.30;1.88;;;17.70;87.00;;;;;;9173270;19;20014;-66
2022/10/24 14:59:58;;;;;;;5.65;1.40;;;17.60;86.70;;;;;;9174023;19;20479;-63
2022/10/24 15:03:02;;;;;;;4.80;1.40;;;17.60;86.60;;;;;;9162741;19;20052;-64
2022/10/24 15:06:15;;;;;;;7.75;2.83;;;17.70;86.90;;;;;;9171923;19;20089;-65
2022/10/24 15:09:19;;;;;;;6.63;1.73;;;17.60;86.60;;;;;;9166382;19;20013;-63
2022/10/24 15:12:34;;;;;;;3.65;1.20;;;17.60;86.60;;;;;;9171516;19;20022;-64
2022/10/24 15:15:50;;;;;;;5.20;1.95;;;17.60;86.80;;;;;;9167597;19;20093;-64
2022/10/24 15:18:55;;;;;;;6.85;1.50;;;17.60;86.90;;;;;;9171135;19;20018;-66
2022/10/24 15:22:01;;;;;;;5.68;1.20;;;17.60;87.10;;;;;;9171387;19;20052;-64
2022/10/24 15:25:07;;;;;;;9.07;2.45;;;17.50;87.00;;;;;;9170666;19;20056;-64
2022/10/24 15:28:40;;;;;;;8.18;2.38;;;17.50;87.00;;;;;;9172921;19;20609;-67
2022/10/24 15:31:46;;;;;;;7.32;1.38;;;17.50;87.20;;;;;;9167583;19;20026;-65
2022/10/24 15:34:50;;;;;;;6.00;1.30;;;17.50;87.00;;;;;;9170967;19;20066;-65
2022/10/24 15:37:58;;;;;;;12.15;1.52;;;17.50;87.30;;;;;;9169114;19;20113;-65
2022/10/24 15:41:01;;;;;;;6.20;1.67;;;17.50;86.40;;;;;;9168066;19;20018;-64
2022/10/24 15:44:14;;;;;;;7.53;1.40;;;17.40;87.00;;;;;;9167027;19;20081;-66
2022/10/24 15:47:22;;;;;;;4.05;1.50;;;17.40;86.90;;;;;;9170880;19;20018;-64
2022/10/24 15:50:26;;;;;;;7.75;1.55;;;17.40;87.20;;;;;;9170538;19;20043;-63
2022/10/24 15:53:32;;;;;;;8.30;1.25;;;17.30;87.00;;;;;;9177619;19;20014;-63
2022/10/24 15:56:35;;;;;;;5.05;1.60;;;17.30;86.90;;;;;;9170606;19;20351;-64
2022/10/24 15:59:39;;;;;;;5.63;1.15;;;17.30;86.90;;;;;;9177005;19;20029;-64
2022/10/24 16:02:44;;;;;;;11.98;1.67;;;17.30;86.60;;;;;;9176503;19;20110;-64
2022/10/24 16:05:51;;;;;;;5.63;1.35;;;17.30;86.90;;;;;;9173566;19;20074;-65
2022/10/24 16:08:57;;;;;;;10.43;2.05;;;17.30;87.20;;;;;;9167102;19;20018;-66
2022/10/24 16:12:00;;;;;;;7.20;1.23;;;17.20;86.60;;;;;;9169605;19;20019;-67
2022/10/24 16:15:05;;;;;;;6.07;1.73;;;17.20;87.20;;;;;;9167792;19;20171;-64
2022/10/24 16:18:10;;;;;;;10.80;1.83;;;17.20;86.80;;;;;;9168671;19;20035;-65
2022/10/24 16:21:18;;;;;;;13.65;1.65;;;17.10;87.10;;;;;;9168020;19;20203;-67